sensor_id;sensor_type;location;lat;lon;timestamp;temperature;humidity
5023;DHT22;2530;47.990;7.866;2022-07-24T00:01:30;20.70;99.90
5023;DHT22;2530;47.990;7.866;2022-07-24T00:03:56;20.70;99.90
5023;DHT22;2530;47.990;7.866;2022-07-24T00:06:22;20.60;99.90
5023;DHT22;2530;47.990;7.866;2022-07-24T00:08:48;20.60;99.90
5023;DHT22;2530;47.990;7.866;2022-07-24T00:11:13;20.70;99.90
5023;DHT22;2530;47.990;7.866;2022-07-24T00:13:39;20.50;99.90
5023;DHT22;2530;47.990;7.866;2022-07-24T00:16:05;20.60;99.90
5023;DHT22;2530;47.990;7.866;2022-07-24T00:18:31;20.50;99.90
5023;DHT22;2530;47.990;7.866;2022-07-24T00:20:57;20.40;99.90
5023;DHT22;2530;47.990;7.866;2022-07-24T00:23:23;20.40;99.90
5023;DHT22;2530;47.990;7.866;2022-07-24T00:25:50;20.40;99.90
5023;DHT22;2530;47.990;7.866;2022-07-24T00:28:16;20.20;99.90
5023;DHT22;2530;47.990;7.866;2022-07-24T00:30:42;20.20;99.90
5023;DHT22;2530;47.990;7.866;2022-07-24T00:33:08;20.10;99.90
5023;DHT22;2530;47.990;7.866;2022-07-24T00:35:34;20.20;99.90
5023;DHT22;2530;47.990;7.866;2022-07-24T00:37:59;20.10;99.90
5023;DHT22;2530;47.990;7.866;2022-07-24T00:40:26;20.10;99.90
5023;DHT22;2530;47.990;7.866;2022-07-24T00:42:52;20.10;99.90
5023;DHT22;2530;47.990;7.866;2022-07-24T00:45:18;20.20;99.90
5023;DHT22;2530;47.990;7.866;2022-07-24T00:47:44;20.20;99.90
5023;DHT22;2530;47.990;7.866;2022-07-24T00:50:11;20.10;99.90
5023;DHT22;2530;47.990;7.866;2022-07-24T00:52:37;20.20;99.90
5023;DHT22;2530;47.990;7.866;2022-07-24T00:55:04;20.10;99.90
5023;DHT22;2530;47.990;7.866;2022-07-24T00:57:30;20.00;99.90
5023;DHT22;2530;47.990;7.866;2022-07-24T00:59:56;20.00;99.90
5023;DHT22;2530;47.990;7.866;2022-07-24T01:02:22;20.00;99.90
5023;DHT22;2530;47.990;7.866;2022-07-24T01:04:48;19.90;99.90
5023;DHT22;2530;47.990;7.866;2022-07-24T01:07:14;19.80;99.90
5023;DHT22;2530;47.990;7.866;2022-07-24T01:09:41;19.80;99.90
5023;DHT22;2530;47.990;7.866;2022-07-24T01:12:07;19.80;99.90
5023;DHT22;2530;47.990;7.866;2022-07-24T01:14:33;19.90;99.90
5023;DHT22;2530;47.990;7.866;2022-07-24T01:16:59;19.70;99.90
5023;DHT22;2530;47.990;7.866;2022-07-24T01:19:24;19.70;99.90
5023;DHT22;2530;47.990;7.866;2022-07-24T01:21:52;19.70;99.90
5023;DHT22;2530;47.990;7.866;2022-07-24T01:24:19;19.70;99.90
5023;DHT22;2530;47.990;7.866;2022-07-24T01:26:45;19.70;99.90
5023;DHT22;2530;47.990;7.866;2022-07-24T01:29:12;19.70;99.90
5023;DHT22;2530;47.990;7.866;2022-07-24T01:31:38;19.70;99.90
5023;DHT22;2530;47.990;7.866;2022-07-24T01:34:04;19.80;99.90
5023;DHT22;2530;47.990;7.866;2022-07-24T01:36:30;20.00;99.90
5023;DHT22;2530;47.990;7.866;2022-07-24T01:38:56;19.70;99.90
5023;DHT22;2530;47.990;7.866;2022-07-24T01:41:22;19.70;99.90
5023;DHT22;2530;47.990;7.866;2022-07-24T01:43:48;19.60;99.90
5023;DHT22;2530;47.990;7.866;2022-07-24T01:46:14;19.70;99.90
5023;DHT22;2530;47.990;7.866;2022-07-24T01:48:43;19.60;99.90
5023;DHT22;2530;47.990;7.866;2022-07-24T01:51:09;19.50;99.90
5023;DHT22;2530;47.990;7.866;2022-07-24T01:53:35;19.50;99.90
5023;DHT22;2530;47.990;7.866;2022-07-24T01:56:01;19.50;99.90
5023;DHT22;2530;47.990;7.866;2022-07-24T01:58:27;19.50;99.90
5023;DHT22;2530;47.990;7.866;2022-07-24T02:00:53;19.50;99.90
5023;DHT22;2530;47.990;7.866;2022-07-24T02:03:19;19.60;99.90
5023;DHT22;2530;47.990;7.866;2022-07-24T02:05:45;19.60;99.90
5023;DHT22;2530;47.990;7.866;2022-07-24T02:08:11;19.50;99.90
5023;DHT22;2530;47.990;7.866;2022-07-24T02:10:36;19.60;99.90
5023;DHT22;2530;47.990;7.866;2022-07-24T02:13:02;19.50;99.90
5023;DHT22;2530;47.990;7.866;2022-07-24T02:15:28;19.50;99.90
5023;DHT22;2530;47.990;7.866;2022-07-24T02:17:56;19.50;99.90
5023;DHT22;2530;47.990;7.866;2022-07-24T02:20:22;19.40;99.90
5023;DHT22;2530;47.990;7.866;2022-07-24T02:22:48;19.30;99.90
5023;DHT22;2530;47.990;7.866;2022-07-24T02:25:14;19.30;99.90
5023;DHT22;2530;47.990;7.866;2022-07-24T02:27:41;19.30;99.90
5023;DHT22;2530;47.990;7.866;2022-07-24T02:30:10;19.30;99.90
5023;DHT22;2530;47.990;7.866;2022-07-24T02:32:36;19.10;99.90
5023;DHT22;2530;47.990;7.866;2022-07-24T02:35:02;19.20;99.90
5023;DHT22;2530;47.990;7.866;2022-07-24T02:37:28;19.10;99.90
5023;DHT22;2530;47.990;7.866;2022-07-24T02:39:54;19.10;99.90
5023;DHT22;2530;47.990;7.866;2022-07-24T02:42:19;19.00;99.90
5023;DHT22;2530;47.990;7.866;2022-07-24T02:44:45;19.00;99.90
5023;DHT22;2530;47.990;7.866;2022-07-24T02:47:11;19.00;99.90
5023;DHT22;2530;47.990;7.866;2022-07-24T02:49:37;19.00;99.90
5023;DHT22;2530;47.990;7.866;2022-07-24T02:52:03;18.90;99.90
5023;DHT22;2530;47.990;7.866;2022-07-24T02:54:29;18.80;99.90
5023;DHT22;2530;47.990;7.866;2022-07-24T02:56:54;18.80;99.90
5023;DHT22;2530;47.990;7.866;2022-07-24T02:59:20;18.80;99.90
5023;DHT22;2530;47.990;7.866;2022-07-24T03:01:45;18.80;99.90
5023;DHT22;2530;47.990;7.866;2022-07-24T03:04:11;18.70;99.90
5023;DHT22;2530;47.990;7.866;2022-07-24T03:06:37;18.70;99.90
5023;DHT22;2530;47.990;7.866;2022-07-24T03:09:03;18.90;99.90
5023;DHT22;2530;47.990;7.866;2022-07-24T03:11:28;18.80;99.90
5023;DHT22;2530;47.990;7.866;2022-07-24T03:13:54;18.90;99.90
5023;DHT22;2530;47.990;7.866;2022-07-24T03:16:20;18.90;99.90
5023;DHT22;2530;47.990;7.866;2022-07-24T03:18:45;18.80;99.90
5023;DHT22;2530;47.990;7.866;2022-07-24T03:21:16;18.80;99.90
5023;DHT22;2530;47.990;7.866;2022-07-24T03:23:43;18.70;99.90
5023;DHT22;2530;47.990;7.866;2022-07-24T03:26:08;18.70;99.90
5023;DHT22;2530;47.990;7.866;2022-07-24T03:28:34;18.80;99.90
5023;DHT22;2530;47.990;7.866;2022-07-24T03:31:01;18.90;99.90
5023;DHT22;2530;47.990;7.866;2022-07-24T03:33:27;18.80;99.90
5023;DHT22;2530;47.990;7.866;2022-07-24T03:35:53;18.70;99.90
5023;DHT22;2530;47.990;7.866;2022-07-24T03:38:19;18.70;99.90
5023;DHT22;2530;47.990;7.866;2022-07-24T03:40:45;18.70;99.90
5023;DHT22;2530;47.990;7.866;2022-07-24T03:43:10;18.70;99.90
5023;DHT22;2530;47.990;7.866;2022-07-24T03:45:36;18.80;99.90
5023;DHT22;2530;47.990;7.866;2022-07-24T03:48:02;18.80;99.90
5023;DHT22;2530;47.990;7.866;2022-07-24T03:50:28;18.60;99.90
5023;DHT22;2530;47.990;7.866;2022-07-24T03:52:53;18.70;99.90
5023;DHT22;2530;47.990;7.866;2022-07-24T03:55:19;18.70;99.90
5023;DHT22;2530;47.990;7.866;2022-07-24T03:57:45;18.60;99.90
5023;DHT22;2530;47.990;7.866;2022-07-24T04:00:11;18.60;99.90
5023;DHT22;2530;47.990;7.866;2022-07-24T04:02:37;18.50;99.90
5023;DHT22;2530;47.990;7.866;2022-07-24T04:05:03;18.50;99.90
5023;DHT22;2530;47.990;7.866;2022-07-24T04:07:32;18.60;99.90
5023;DHT22;2530;47.990;7.866;2022-07-24T04:09:58;18.60;99.90
5023;DHT22;2530;47.990;7.866;2022-07-24T04:12:23;18.50;99.90
5023;DHT22;2530;47.990;7.866;2022-07-24T04:14:49;18.60;99.90
5023;DHT22;2530;47.990;7.866;2022-07-24T04:17:14;18.40;99.90
5023;DHT22;2530;47.990;7.866;2022-07-24T04:19:40;18.40;99.90
5023;DHT22;2530;47.990;7.866;2022-07-24T04:22:06;18.30;99.90
5023;DHT22;2530;47.990;7.866;2022-07-24T04:24:31;18.40;99.90
5023;DHT22;2530;47.990;7.866;2022-07-24T04:26:57;18.30;99.90
5023;DHT22;2530;47.990;7.866;2022-07-24T04:29:23;18.40;99.90
5023;DHT22;2530;47.990;7.866;2022-07-24T04:31:48;18.40;99.90
5023;DHT22;2530;47.990;7.866;2022-07-24T04:34:14;18.40;99.90
5023;DHT22;2530;47.990;7.866;2022-07-24T04:36:40;18.40;99.90
5023;DHT22;2530;47.990;7.866;2022-07-24T04:39:05;18.40;99.90
5023;DHT22;2530;47.990;7.866;2022-07-24T04:41:31;18.40;99.90
5023;DHT22;2530;47.990;7.866;2022-07-24T04:43:57;18.40;99.90
5023;DHT22;2530;47.990;7.866;2022-07-24T04:46:22;18.40;99.90
5023;DHT22;2530;47.990;7.866;2022-07-24T04:48:48;18.50;99.90
5023;DHT22;2530;47.990;7.866;2022-07-24T04:51:13;18.50;99.90
5023;DHT22;2530;47.990;7.866;2022-07-24T04:53:39;18.50;99.90
5023;DHT22;2530;47.990;7.866;2022-07-24T04:56:05;18.60;99.90
5023;DHT22;2530;47.990;7.866;2022-07-24T04:58:30;18.70;99.90
5023;DHT22;2530;47.990;7.866;2022-07-24T05:00:56;18.60;99.90
5023;DHT22;2530;47.990;7.866;2022-07-24T05:03:22;18.60;99.90
5023;DHT22;2530;47.990;7.866;2022-07-24T05:05:48;18.60;99.90
5023;DHT22;2530;47.990;7.866;2022-07-24T05:08:13;18.70;99.90
5023;DHT22;2530;47.990;7.866;2022-07-24T05:10:39;18.70;99.90
5023;DHT22;2530;47.990;7.866;2022-07-24T05:13:05;18.80;99.90
5023;DHT22;2530;47.990;7.866;2022-07-24T05:15:31;18.80;99.90
5023;DHT22;2530;47.990;7.866;2022-07-24T05:17:57;18.80;99.90
5023;DHT22;2530;47.990;7.866;2022-07-24T05:20:22;18.70;99.90
5023;DHT22;2530;47.990;7.866;2022-07-24T05:22:48;18.80;99.90
5023;DHT22;2530;47.990;7.866;2022-07-24T05:25:14;18.90;99.90
5023;DHT22;2530;47.990;7.866;2022-07-24T05:27:39;19.00;99.90
5023;DHT22;2530;47.990;7.866;2022-07-24T05:30:06;19.10;99.90
5023;DHT22;2530;47.990;7.866;2022-07-24T05:32:31;19.20;99.90
5023;DHT22;2530;47.990;7.866;2022-07-24T05:34:57;19.30;99.90
5023;DHT22;2530;47.990;7.866;2022-07-24T05:37:23;19.30;99.90
5023;DHT22;2530;47.990;7.866;2022-07-24T05:39:48;19.30;99.90
5023;DHT22;2530;47.990;7.866;2022-07-24T05:42:14;19.40;99.90
5023;DHT22;2530;47.990;7.866;2022-07-24T05:44:40;19.50;99.90
5023;DHT22;2530;47.990;7.866;2022-07-24T05:47:05;19.60;99.90
5023;DHT22;2530;47.990;7.866;2022-07-24T05:49:31;19.70;99.90
5023;DHT22;2530;47.990;7.866;2022-07-24T05:51:57;19.80;99.90
5023;DHT22;2530;47.990;7.866;2022-07-24T05:54:22;19.90;99.90
5023;DHT22;2530;47.990;7.866;2022-07-24T05:56:48;19.90;99.90
5023;DHT22;2530;47.990;7.866;2022-07-24T05:59:14;20.00;99.90
5023;DHT22;2530;47.990;7.866;2022-07-24T06:01:40;20.00;99.90
5023;DHT22;2530;47.990;7.866;2022-07-24T06:04:05;20.00;99.90
5023;DHT22;2530;47.990;7.866;2022-07-24T06:06:31;20.20;99.90
5023;DHT22;2530;47.990;7.866;2022-07-24T06:08:57;20.30;99.90
5023;DHT22;2530;47.990;7.866;2022-07-24T06:11:22;20.30;99.90
5023;DHT22;2530;47.990;7.866;2022-07-24T06:13:49;20.30;99.90
5023;DHT22;2530;47.990;7.866;2022-07-24T06:16:14;20.40;99.90
5023;DHT22;2530;47.990;7.866;2022-07-24T06:18:40;20.40;99.90
5023;DHT22;2530;47.990;7.866;2022-07-24T06:21:06;20.50;99.90
5023;DHT22;2530;47.990;7.866;2022-07-24T06:23:32;20.60;99.90
5023;DHT22;2530;47.990;7.866;2022-07-24T06:25:58;20.70;99.90
5023;DHT22;2530;47.990;7.866;2022-07-24T06:28:24;20.90;99.90
5023;DHT22;2530;47.990;7.866;2022-07-24T06:30:49;20.80;99.90
5023;DHT22;2530;47.990;7.866;2022-07-24T06:33:15;20.80;99.90
5023;DHT22;2530;47.990;7.866;2022-07-24T06:35:41;21.00;99.90
5023;DHT22;2530;47.990;7.866;2022-07-24T06:38:07;21.00;99.90
5023;DHT22;2530;47.990;7.866;2022-07-24T06:40:33;21.10;99.90
5023;DHT22;2530;47.990;7.866;2022-07-24T06:42:59;21.20;99.90
5023;DHT22;2530;47.990;7.866;2022-07-24T06:45:25;21.40;99.90
5023;DHT22;2530;47.990;7.866;2022-07-24T06:47:50;21.50;99.90
5023;DHT22;2530;47.990;7.866;2022-07-24T06:50:17;21.50;99.90
5023;DHT22;2530;47.990;7.866;2022-07-24T06:52:43;21.50;99.90
5023;DHT22;2530;47.990;7.866;2022-07-24T06:55:09;21.50;99.90
5023;DHT22;2530;47.990;7.866;2022-07-24T06:57:35;21.70;99.90
5023;DHT22;2530;47.990;7.866;2022-07-24T07:00:00;21.90;99.90
5023;DHT22;2530;47.990;7.866;2022-07-24T07:02:26;21.90;99.90
5023;DHT22;2530;47.990;7.866;2022-07-24T07:04:52;21.90;99.90
5023;DHT22;2530;47.990;7.866;2022-07-24T07:07:18;22.10;99.90
5023;DHT22;2530;47.990;7.866;2022-07-24T07:09:44;22.20;99.90
5023;DHT22;2530;47.990;7.866;2022-07-24T07:12:10;22.20;99.90
5023;DHT22;2530;47.990;7.866;2022-07-24T07:14:36;22.30;99.90
5023;DHT22;2530;47.990;7.866;2022-07-24T07:17:01;22.30;99.90
5023;DHT22;2530;47.990;7.866;2022-07-24T07:19:27;22.40;99.90
5023;DHT22;2530;47.990;7.866;2022-07-24T07:21:53;22.50;99.90
5023;DHT22;2530;47.990;7.866;2022-07-24T07:24:18;22.60;99.90
5023;DHT22;2530;47.990;7.866;2022-07-24T07:26:44;22.80;99.90
5023;DHT22;2530;47.990;7.866;2022-07-24T07:29:10;23.00;99.90
5023;DHT22;2530;47.990;7.866;2022-07-24T07:31:36;23.40;99.90
5023;DHT22;2530;47.990;7.866;2022-07-24T07:34:02;23.50;99.90
5023;DHT22;2530;47.990;7.866;2022-07-24T07:36:28;23.50;99.90
5023;DHT22;2530;47.990;7.866;2022-07-24T07:38:53;23.70;99.90
5023;DHT22;2530;47.990;7.866;2022-07-24T07:41:19;23.70;99.90
5023;DHT22;2530;47.990;7.866;2022-07-24T07:43:48;23.60;99.90
5023;DHT22;2530;47.990;7.866;2022-07-24T07:46:14;23.70;99.90
5023;DHT22;2530;47.990;7.866;2022-07-24T07:48:40;23.60;99.90
5023;DHT22;2530;47.990;7.866;2022-07-24T07:51:06;23.90;99.90
5023;DHT22;2530;47.990;7.866;2022-07-24T07:53:32;24.00;99.90
5023;DHT22;2530;47.990;7.866;2022-07-24T07:55:57;24.20;99.90
5023;DHT22;2530;47.990;7.866;2022-07-24T07:58:23;24.10;99.90
5023;DHT22;2530;47.990;7.866;2022-07-24T08:00:49;24.20;99.90
5023;DHT22;2530;47.990;7.866;2022-07-24T08:03:15;24.30;99.90
5023;DHT22;2530;47.990;7.866;2022-07-24T08:05:41;24.30;99.90
5023;DHT22;2530;47.990;7.866;2022-07-24T08:08:07;24.40;99.90
5023;DHT22;2530;47.990;7.866;2022-07-24T08:10:32;24.40;99.90
5023;DHT22;2530;47.990;7.866;2022-07-24T08:12:58;24.50;99.90
5023;DHT22;2530;47.990;7.866;2022-07-24T08:15:24;24.50;99.90
5023;DHT22;2530;47.990;7.866;2022-07-24T08:17:53;24.70;99.90
5023;DHT22;2530;47.990;7.866;2022-07-24T08:20:20;24.60;99.90
5023;DHT22;2530;47.990;7.866;2022-07-24T08:22:47;24.70;99.90
5023;DHT22;2530;47.990;7.866;2022-07-24T08:25:13;24.70;99.90
5023;DHT22;2530;47.990;7.866;2022-07-24T08:27:39;24.70;99.90
5023;DHT22;2530;47.990;7.866;2022-07-24T08:30:05;24.90;99.90
5023;DHT22;2530;47.990;7.866;2022-07-24T08:32:31;24.90;99.40
5023;DHT22;2530;47.990;7.866;2022-07-24T08:34:57;24.80;99.80
5023;DHT22;2530;47.990;7.866;2022-07-24T08:37:22;25.10;98.90
5023;DHT22;2530;47.990;7.866;2022-07-24T08:39:48;25.10;97.80
5023;DHT22;2530;47.990;7.866;2022-07-24T08:42:13;25.10;97.90
5023;DHT22;2530;47.990;7.866;2022-07-24T08:44:39;25.10;99.00
5023;DHT22;2530;47.990;7.866;2022-07-24T08:47:06;25.10;97.70
5023;DHT22;2530;47.990;7.866;2022-07-24T08:49:36;25.20;97.70
5023;DHT22;2530;47.990;7.866;2022-07-24T08:52:05;25.40;97.30
5023;DHT22;2530;47.990;7.866;2022-07-24T08:54:36;25.40;96.80
5023;DHT22;2530;47.990;7.866;2022-07-24T08:57:03;25.40;96.70
5023;DHT22;2530;47.990;7.866;2022-07-24T08:59:29;25.20;96.40
5023;DHT22;2530;47.990;7.866;2022-07-24T09:01:55;25.50;95.20
5023;DHT22;2530;47.990;7.866;2022-07-24T09:04:41;25.50;94.60
5023;DHT22;2530;47.990;7.866;2022-07-24T09:07:14;25.40;96.50
5023;DHT22;2530;47.990;7.866;2022-07-24T09:09:41;25.40;95.20
5023;DHT22;2530;47.990;7.866;2022-07-24T09:12:09;25.50;95.50
5023;DHT22;2530;47.990;7.866;2022-07-24T09:14:37;25.50;94.90
5023;DHT22;2530;47.990;7.866;2022-07-24T09:17:12;25.60;95.90
5023;DHT22;2530;47.990;7.866;2022-07-24T09:19:59;25.70;97.70
5023;DHT22;2530;47.990;7.866;2022-07-24T09:22:33;25.80;96.20
5023;DHT22;2530;47.990;7.866;2022-07-24T09:27:36;26.00;95.20
5023;DHT22;2530;47.990;7.866;2022-07-24T09:30:04;26.00;95.50
5023;DHT22;2530;47.990;7.866;2022-07-24T09:32:30;26.00;95.20
5023;DHT22;2530;47.990;7.866;2022-07-24T09:34:56;26.30;94.70
5023;DHT22;2530;47.990;7.866;2022-07-24T09:37:31;26.10;96.10
5023;DHT22;2530;47.990;7.866;2022-07-24T09:40:06;25.90;96.60
5023;DHT22;2530;47.990;7.866;2022-07-24T09:42:33;26.20;95.60
5023;DHT22;2530;47.990;7.866;2022-07-24T09:45:05;26.50;94.40
5023;DHT22;2530;47.990;7.866;2022-07-24T09:47:34;26.50;93.90
5023;DHT22;2530;47.990;7.866;2022-07-24T09:50:12;26.50;93.60
5023;DHT22;2530;47.990;7.866;2022-07-24T09:52:39;26.60;92.90
5023;DHT22;2530;47.990;7.866;2022-07-24T09:55:19;26.60;92.30
5023;DHT22;2530;47.990;7.866;2022-07-24T09:57:45;26.60;93.10
5023;DHT22;2530;47.990;7.866;2022-07-24T10:00:11;26.70;93.30
5023;DHT22;2530;47.990;7.866;2022-07-24T10:02:37;26.90;93.40
5023;DHT22;2530;47.990;7.866;2022-07-24T10:05:03;26.80;93.40
5023;DHT22;2530;47.990;7.866;2022-07-24T10:07:30;26.70;91.70
5023;DHT22;2530;47.990;7.866;2022-07-24T10:09:58;27.00;92.00
5023;DHT22;2530;47.990;7.866;2022-07-24T10:12:28;26.90;90.90
5023;DHT22;2530;47.990;7.866;2022-07-24T10:14:56;26.90;91.00
5023;DHT22;2530;47.990;7.866;2022-07-24T10:17:52;26.90;90.90
5023;DHT22;2530;47.990;7.866;2022-07-24T10:20:11;27.10;90.20
5023;DHT22;2530;47.990;7.866;2022-07-24T10:23:03;27.30;88.90
5023;DHT22;2530;47.990;7.866;2022-07-24T10:25:30;27.20;88.20
5023;DHT22;2530;47.990;7.866;2022-07-24T10:28:07;27.30;88.70
5023;DHT22;2530;47.990;7.866;2022-07-24T10:30:34;27.30;88.50
5023;DHT22;2530;47.990;7.866;2022-07-24T10:33:00;27.20;87.50
5023;DHT22;2530;47.990;7.866;2022-07-24T10:35:27;27.40;87.70
5023;DHT22;2530;47.990;7.866;2022-07-24T10:40:51;27.60;87.20
5023;DHT22;2530;47.990;7.866;2022-07-24T10:43:20;27.60;84.90
5023;DHT22;2530;47.990;7.866;2022-07-24T10:48:35;27.50;87.50
5023;DHT22;2530;47.990;7.866;2022-07-24T10:51:03;27.70;87.80
5023;DHT22;2530;47.990;7.866;2022-07-24T10:53:50;27.90;82.90
5023;DHT22;2530;47.990;7.866;2022-07-24T10:56:17;27.90;82.40
5023;DHT22;2530;47.990;7.866;2022-07-24T10:59:04;28.10;81.60
5023;DHT22;2530;47.990;7.866;2022-07-24T11:04:24;28.20;80.50
5023;DHT22;2530;47.990;7.866;2022-07-24T11:09:16;28.30;82.30
5023;DHT22;2530;47.990;7.866;2022-07-24T11:15:03;28.50;78.10
5023;DHT22;2530;47.990;7.866;2022-07-24T11:17:41;28.60;76.50
5023;DHT22;2530;47.990;7.866;2022-07-24T11:20:09;28.80;76.50
5023;DHT22;2530;47.990;7.866;2022-07-24T11:25:18;28.60;73.50
5023;DHT22;2530;47.990;7.866;2022-07-24T11:30:12;29.00;74.60
5023;DHT22;2530;47.990;7.866;2022-07-24T11:32:40;28.90;75.00
5023;DHT22;2530;47.990;7.866;2022-07-24T11:35:06;29.10;75.20
5023;DHT22;2530;47.990;7.866;2022-07-24T11:37:35;29.00;73.40
5023;DHT22;2530;47.990;7.866;2022-07-24T11:40:02;29.20;72.90
5023;DHT22;2530;47.990;7.866;2022-07-24T11:42:29;29.40;72.50
5023;DHT22;2530;47.990;7.866;2022-07-24T11:44:55;29.70;72.30
5023;DHT22;2530;47.990;7.866;2022-07-24T11:47:22;29.90;68.60
5023;DHT22;2530;47.990;7.866;2022-07-24T11:49:53;31.00;68.60
5023;DHT22;2530;47.990;7.866;2022-07-24T11:52:26;31.70;65.20
5023;DHT22;2530;47.990;7.866;2022-07-24T11:54:55;31.70;64.70
5023;DHT22;2530;47.990;7.866;2022-07-24T11:57:26;32.50;60.20
5023;DHT22;2530;47.990;7.866;2022-07-24T11:59:52;32.40;59.30
5023;DHT22;2530;47.990;7.866;2022-07-24T12:02:19;31.90;60.10
5023;DHT22;2530;47.990;7.866;2022-07-24T12:04:46;31.80;60.50
5023;DHT22;2530;47.990;7.866;2022-07-24T12:07:24;31.90;60.50
5023;DHT22;2530;47.990;7.866;2022-07-24T12:09:56;32.00;60.30
5023;DHT22;2530;47.990;7.866;2022-07-24T12:12:32;32.10;64.10
5023;DHT22;2530;47.990;7.866;2022-07-24T12:15:08;32.00;60.80
5023;DHT22;2530;47.990;7.866;2022-07-24T12:20:29;32.60;58.50
5023;DHT22;2530;47.990;7.866;2022-07-24T12:22:56;32.70;58.60
5023;DHT22;2530;47.990;7.866;2022-07-24T12:25:22;33.20;56.50
5023;DHT22;2530;47.990;7.866;2022-07-24T12:27:49;32.70;57.10
5023;DHT22;2530;47.990;7.866;2022-07-24T12:30:27;32.80;57.10
5023;DHT22;2530;47.990;7.866;2022-07-24T12:32:59;33.00;57.40
5023;DHT22;2530;47.990;7.866;2022-07-24T12:35:26;33.30;55.90
5023;DHT22;2530;47.990;7.866;2022-07-24T12:37:53;32.70;56.90
5023;DHT22;2530;47.990;7.866;2022-07-24T12:40:28;31.80;56.40
5023;DHT22;2530;47.990;7.866;2022-07-24T12:42:59;31.40;59.00
5023;DHT22;2530;47.990;7.866;2022-07-24T12:45:26;32.20;58.60
5023;DHT22;2530;47.990;7.866;2022-07-24T12:48:09;32.30;57.80
5023;DHT22;2530;47.990;7.866;2022-07-24T12:50:37;32.70;58.70
5023;DHT22;2530;47.990;7.866;2022-07-24T12:53:07;32.60;57.30
5023;DHT22;2530;47.990;7.866;2022-07-24T12:55:34;31.90;58.50
5023;DHT22;2530;47.990;7.866;2022-07-24T12:58:01;32.00;59.90
5023;DHT22;2530;47.990;7.866;2022-07-24T13:00:28;33.20;57.20
5023;DHT22;2530;47.990;7.866;2022-07-24T13:02:54;32.60;56.10
5023;DHT22;2530;47.990;7.866;2022-07-24T13:05:42;32.20;56.20
5023;DHT22;2530;47.990;7.866;2022-07-24T13:08:10;31.70;58.20
5023;DHT22;2530;47.990;7.866;2022-07-24T13:10:36;31.90;58.40
5023;DHT22;2530;47.990;7.866;2022-07-24T13:13:03;31.90;58.60
5023;DHT22;2530;47.990;7.866;2022-07-24T13:15:29;32.30;59.20
5023;DHT22;2530;47.990;7.866;2022-07-24T13:17:54;31.90;58.30
5023;DHT22;2530;47.990;7.866;2022-07-24T13:20:20;32.20;59.30
5023;DHT22;2530;47.990;7.866;2022-07-24T13:22:46;32.30;58.10
5023;DHT22;2530;47.990;7.866;2022-07-24T13:25:11;32.50;57.70
5023;DHT22;2530;47.990;7.866;2022-07-24T13:27:37;32.30;58.90
5023;DHT22;2530;47.990;7.866;2022-07-24T13:30:03;32.70;58.40
5023;DHT22;2530;47.990;7.866;2022-07-24T13:32:29;32.70;58.70
5023;DHT22;2530;47.990;7.866;2022-07-24T13:34:55;32.60;58.40
5023;DHT22;2530;47.990;7.866;2022-07-24T13:37:20;32.10;57.20
5023;DHT22;2530;47.990;7.866;2022-07-24T13:39:46;32.00;57.80
5023;DHT22;2530;47.990;7.866;2022-07-24T13:42:12;32.20;57.70
5023;DHT22;2530;47.990;7.866;2022-07-24T13:44:40;32.50;59.90
5023;DHT22;2530;47.990;7.866;2022-07-24T13:47:06;32.60;57.80
5023;DHT22;2530;47.990;7.866;2022-07-24T13:49:32;32.80;58.10
5023;DHT22;2530;47.990;7.866;2022-07-24T13:51:58;32.30;56.20
5023;DHT22;2530;47.990;7.866;2022-07-24T13:54:24;32.60;56.90
5023;DHT22;2530;47.990;7.866;2022-07-24T13:56:49;32.20;57.00
5023;DHT22;2530;47.990;7.866;2022-07-24T13:59:15;32.40;57.20
5023;DHT22;2530;47.990;7.866;2022-07-24T14:01:41;31.90;57.20
5023;DHT22;2530;47.990;7.866;2022-07-24T14:04:07;32.20;58.50
5023;DHT22;2530;47.990;7.866;2022-07-24T14:06:35;32.30;58.40
5023;DHT22;2530;47.990;7.866;2022-07-24T14:09:02;32.70;57.90
5023;DHT22;2530;47.990;7.866;2022-07-24T14:11:28;32.50;57.00
5023;DHT22;2530;47.990;7.866;2022-07-24T14:13:54;32.60;56.30
5023;DHT22;2530;47.990;7.866;2022-07-24T14:16:19;32.80;57.60
5023;DHT22;2530;47.990;7.866;2022-07-24T14:18:46;32.60;56.50
5023;DHT22;2530;47.990;7.866;2022-07-24T14:21:12;32.70;56.50
5023;DHT22;2530;47.990;7.866;2022-07-24T14:23:38;32.70;55.70
5023;DHT22;2530;47.990;7.866;2022-07-24T14:26:04;32.40;56.30
5023;DHT22;2530;47.990;7.866;2022-07-24T14:28:31;32.30;56.60
5023;DHT22;2530;47.990;7.866;2022-07-24T14:30:57;32.30;57.70
5023;DHT22;2530;47.990;7.866;2022-07-24T14:33:22;32.10;56.20
5023;DHT22;2530;47.990;7.866;2022-07-24T14:35:48;32.00;55.80
5023;DHT22;2530;47.990;7.866;2022-07-24T14:38:14;32.30;56.10
5023;DHT22;2530;47.990;7.866;2022-07-24T14:40:40;32.70;58.30
5023;DHT22;2530;47.990;7.866;2022-07-24T14:43:06;32.40;55.50
5023;DHT22;2530;47.990;7.866;2022-07-24T14:45:32;32.30;56.30
5023;DHT22;2530;47.990;7.866;2022-07-24T14:47:58;32.40;57.80
5023;DHT22;2530;47.990;7.866;2022-07-24T14:50:23;33.00;57.90
5023;DHT22;2530;47.990;7.866;2022-07-24T14:52:49;32.80;54.70
5023;DHT22;2530;47.990;7.866;2022-07-24T14:55:15;32.80;54.90
5023;DHT22;2530;47.990;7.866;2022-07-24T14:57:40;33.20;57.20
5023;DHT22;2530;47.990;7.866;2022-07-24T15:00:07;33.40;57.00
5023;DHT22;2530;47.990;7.866;2022-07-24T15:02:33;32.40;54.30
5023;DHT22;2530;47.990;7.866;2022-07-24T15:04:58;32.80;56.00
5023;DHT22;2530;47.990;7.866;2022-07-24T15:07:25;32.80;56.60
5023;DHT22;2530;47.990;7.866;2022-07-24T15:09:50;33.20;54.80
5023;DHT22;2530;47.990;7.866;2022-07-24T15:12:16;33.10;54.20
5023;DHT22;2530;47.990;7.866;2022-07-24T15:14:42;33.10;55.20
5023;DHT22;2530;47.990;7.866;2022-07-24T15:17:09;33.00;56.70
5023;DHT22;2530;47.990;7.866;2022-07-24T15:19:34;33.30;56.90
5023;DHT22;2530;47.990;7.866;2022-07-24T15:22:00;33.50;54.80
5023;DHT22;2530;47.990;7.866;2022-07-24T15:24:25;33.80;54.40
5023;DHT22;2530;47.990;7.866;2022-07-24T15:26:51;33.20;56.90
5023;DHT22;2530;47.990;7.866;2022-07-24T15:29:17;33.50;56.20
5023;DHT22;2530;47.990;7.866;2022-07-24T15:31:44;33.30;55.20
5023;DHT22;2530;47.990;7.866;2022-07-24T15:34:11;32.80;55.20
5023;DHT22;2530;47.990;7.866;2022-07-24T15:36:37;32.90;53.80
5023;DHT22;2530;47.990;7.866;2022-07-24T15:39:03;32.80;54.50
5023;DHT22;2530;47.990;7.866;2022-07-24T15:41:30;32.80;54.80
5023;DHT22;2530;47.990;7.866;2022-07-24T15:43:56;32.70;54.60
5023;DHT22;2530;47.990;7.866;2022-07-24T15:46:21;32.70;54.40
5023;DHT22;2530;47.990;7.866;2022-07-24T15:48:47;32.40;54.40
5023;DHT22;2530;47.990;7.866;2022-07-24T15:51:12;32.30;54.70
5023;DHT22;2530;47.990;7.866;2022-07-24T15:53:38;32.30;54.80
5023;DHT22;2530;47.990;7.866;2022-07-24T15:56:04;32.50;54.80
5023;DHT22;2530;47.990;7.866;2022-07-24T15:58:30;32.60;54.90
5023;DHT22;2530;47.990;7.866;2022-07-24T16:00:56;32.50;54.50
5023;DHT22;2530;47.990;7.866;2022-07-24T16:03:21;32.20;54.90
5023;DHT22;2530;47.990;7.866;2022-07-24T16:05:47;32.30;54.70
5023;DHT22;2530;47.990;7.866;2022-07-24T16:08:13;31.80;55.00
5023;DHT22;2530;47.990;7.866;2022-07-24T16:10:38;32.30;55.20
5023;DHT22;2530;47.990;7.866;2022-07-24T16:13:04;32.30;54.60
5023;DHT22;2530;47.990;7.866;2022-07-24T16:15:29;32.30;55.50
5023;DHT22;2530;47.990;7.866;2022-07-24T16:17:55;32.50;54.70
5023;DHT22;2530;47.990;7.866;2022-07-24T16:20:21;32.70;54.20
5023;DHT22;2530;47.990;7.866;2022-07-24T16:22:47;32.60;54.40
5023;DHT22;2530;47.990;7.866;2022-07-24T16:25:13;32.40;54.30